createdAt,value
2023-04-28T00:00:38.908Z,10.40
2023-04-28T00:03:05.818Z,11.15
2023-04-28T00:05:32.873Z,10.13
2023-04-28T00:07:59.845Z,9.50
2023-04-28T00:10:26.650Z,8.90
2023-04-28T00:12:53.437Z,10.63
2023-04-28T00:15:21.001Z,13.55
2023-04-28T00:17:48.043Z,10.25
2023-04-28T00:20:14.913Z,9.20
2023-04-28T00:22:42.138Z,9.98
2023-04-28T00:25:11.554Z,9.52
2023-04-28T00:27:38.546Z,7.53
2023-04-28T00:30:06.281Z,10.65
2023-04-28T00:32:33.198Z,10.38
2023-04-28T00:35:00.082Z,12.15
2023-04-28T00:37:26.886Z,14.02
2023-04-28T00:39:56.848Z,6.53
2023-04-28T00:42:24.098Z,8.70
2023-04-28T00:44:51.060Z,8.45
2023-04-28T00:47:19.328Z,9.80
2023-04-28T00:49:47.747Z,8.60
2023-04-28T00:52:14.564Z,8.93
2023-04-28T00:54:42.751Z,13.45
2023-04-28T00:57:10.975Z,12.27
2023-04-28T00:59:38.215Z,10.02
2023-04-28T01:02:06.691Z,10.40
2023-04-28T01:04:34.260Z,11.60
2023-04-28T01:07:02.340Z,12.10
2023-04-28T01:09:29.397Z,14.82
2023-04-28T01:11:56.246Z,11.07
2023-04-28T01:14:23.238Z,16.60
2023-04-28T01:16:50.205Z,10.55
2023-04-28T01:19:26.397Z,9.77
2023-04-28T01:21:53.301Z,11.40
2023-04-28T01:24:20.352Z,12.20
2023-04-28T01:26:47.372Z,9.50
2023-04-28T01:29:14.283Z,12.55
2023-04-28T01:31:41.290Z,12.25
2023-04-28T01:34:08.291Z,10.52
2023-04-28T01:36:37.398Z,12.50
2023-04-28T01:39:05.143Z,12.13
2023-04-28T01:41:34.427Z,16.35
2023-04-28T01:44:01.646Z,12.20
2023-04-28T01:46:28.492Z,12.15
2023-04-28T01:48:55.421Z,11.57
2023-04-28T01:51:22.273Z,12.77
2023-04-28T01:53:49.246Z,11.68
2023-04-28T01:56:16.207Z,13.73
2023-04-28T01:58:43.056Z,8.57
2023-04-28T02:01:09.883Z,12.90
2023-04-28T02:03:37.008Z,14.30
2023-04-28T02:06:04.873Z,12.55
2023-04-28T02:08:31.860Z,10.23
2023-04-28T02:10:58.794Z,9.25
2023-04-28T02:13:25.635Z,13.15
2023-04-28T02:15:52.653Z,11.73
2023-04-28T02:18:19.528Z,8.95
2023-04-28T02:20:46.370Z,9.68
2023-04-28T02:23:13.424Z,20.25
2023-04-28T02:25:40.260Z,9.55
2023-04-28T02:28:07.176Z,10.70
2023-04-28T02:30:34.023Z,11.55
2023-04-28T02:33:00.879Z,12.73
2023-04-28T02:35:27.967Z,10.25
2023-04-28T02:37:54.811Z,14.18
2023-04-28T02:40:21.700Z,11.38
2023-04-28T02:42:48.486Z,16.40
2023-04-28T02:45:15.571Z,12.00
2023-04-28T02:47:42.373Z,10.18
2023-04-28T02:50:09.644Z,12.80
2023-04-28T02:52:36.469Z,12.90
2023-04-28T02:55:04.783Z,13.95
2023-04-28T02:57:31.576Z,12.10
2023-04-28T02:59:58.401Z,13.20
2023-04-28T03:02:25.606Z,12.00
2023-04-28T03:04:52.490Z,10.75
2023-04-28T03:07:19.432Z,10.13
2023-04-28T03:09:46.404Z,10.27
2023-04-28T03:12:13.343Z,18.88
2023-04-28T03:14:40.141Z,9.35
2023-04-28T03:17:07.549Z,11.65
2023-04-28T03:19:34.453Z,16.70
2023-04-28T03:22:01.265Z,14.13
2023-04-28T03:24:28.076Z,10.18
2023-04-28T03:26:55.052Z,9.63
2023-04-28T03:29:24.320Z,14.88
2023-04-28T03:31:51.866Z,10.65
2023-04-28T03:34:18.908Z,11.85
2023-04-28T03:36:46.098Z,14.75
2023-04-28T03:39:12.897Z,10.93
2023-04-28T03:41:39.712Z,11.10
2023-04-28T03:44:06.579Z,10.20
2023-04-28T03:46:34.697Z,14.35
2023-04-28T03:49:02.347Z,7.60
2023-04-28T03:51:30.230Z,22.05
2023-04-28T03:53:57.063Z,12.00
2023-04-28T03:56:24.108Z,11.55
2023-04-28T03:58:51.172Z,11.38
2023-04-28T04:01:18.011Z,14.88
2023-04-28T04:03:45.119Z,13.55
2023-04-28T04:06:12.608Z,17.35
2023-04-28T04:08:39.584Z,12.95
2023-04-28T04:11:06.493Z,9.15
2023-04-28T04:13:33.368Z,10.02
2023-04-28T04:16:00.615Z,7.47
2023-04-28T04:18:27.678Z,10.60
2023-04-28T04:20:55.936Z,9.68
2023-04-28T04:23:23.136Z,9.63
2023-04-28T04:25:50.265Z,11.80
2023-04-28T04:28:17.203Z,9.65
2023-04-28T04:30:44.940Z,20.88
2023-04-28T04:33:11.806Z,10.70
2023-04-28T04:35:38.709Z,10.70
2023-04-28T04:38:05.631Z,8.32
2023-04-28T04:40:32.397Z,12.02
2023-04-28T04:42:59.298Z,11.73
2023-04-28T04:45:26.173Z,12.57
2023-04-28T04:47:53.417Z,14.98
2023-04-28T04:50:20.556Z,8.48
2023-04-28T04:52:47.461Z,10.80
2023-04-28T04:55:14.328Z,9.07
2023-04-28T04:57:41.171Z,10.68
2023-04-28T05:00:08.860Z,13.35
2023-04-28T05:02:36.069Z,14.23
2023-04-28T05:05:16.876Z,10.02
2023-04-28T05:07:47.936Z,9.80
2023-04-28T05:10:14.766Z,10.25
2023-04-28T05:12:41.605Z,13.15
2023-04-28T05:15:09.090Z,8.32
2023-04-28T05:17:35.988Z,9.63
2023-04-28T05:20:03.449Z,10.25
2023-04-28T05:22:31.332Z,11.43
2023-04-28T05:24:58.301Z,12.68
2023-04-28T05:27:25.100Z,8.50
2023-04-28T05:29:51.863Z,10.50
2023-04-28T05:32:18.706Z,8.63
2023-04-28T05:34:45.957Z,9.70
2023-04-28T05:37:12.751Z,9.57
2023-04-28T05:39:39.604Z,11.75
2023-04-28T05:42:06.549Z,11.82
2023-04-28T05:44:33.415Z,8.32
2023-04-28T05:47:00.459Z,9.35
2023-04-28T05:49:27.289Z,9.07
2023-04-28T05:51:54.101Z,7.32
2023-04-28T05:54:20.933Z,14.25
2023-04-28T05:56:47.826Z,8.30
2023-04-28T05:59:15.924Z,7.65
2023-04-28T06:01:43.254Z,9.60
2023-04-28T06:04:10.415Z,10.98
2023-04-28T06:06:37.403Z,8.25
2023-04-28T06:09:04.642Z,14.18
2023-04-28T06:11:31.696Z,11.15
2023-04-28T06:13:58.566Z,7.75
2023-04-28T06:16:26.213Z,7.30
2023-04-28T06:18:53.426Z,8.30
2023-04-28T06:21:21.505Z,9.30
2023-04-28T06:23:48.635Z,14.52
2023-04-28T06:26:17.981Z,10.40
2023-04-28T06:28:45.323Z,11.30
2023-04-28T06:31:12.275Z,7.93
2023-04-28T06:33:39.093Z,7.50
2023-04-28T06:36:06.345Z,6.47
2023-04-28T06:38:33.136Z,7.10
2023-04-28T06:40:59.920Z,9.00
2023-04-28T06:43:26.952Z,6.55
2023-04-28T06:45:53.919Z,5.68
2023-04-28T06:48:21.007Z,7.80
2023-04-28T06:50:47.804Z,5.50
2023-04-28T06:53:14.675Z,7.40
2023-04-28T06:55:41.716Z,8.93
2023-04-28T06:58:08.537Z,8.15
2023-04-28T07:00:35.564Z,6.45
2023-04-28T07:03:02.854Z,5.93
2023-04-28T07:05:30.128Z,8.10
2023-04-28T07:07:57.016Z,7.18
2023-04-28T07:10:24.295Z,5.03
2023-04-28T07:12:54.245Z,6.20
2023-04-28T07:15:21.348Z,8.77
2023-04-28T07:17:48.263Z,7.65
2023-04-28T07:20:15.356Z,9.93
2023-04-28T07:22:42.273Z,6.38
2023-04-28T07:25:09.387Z,10.13
2023-04-28T07:27:36.847Z,9.65
2023-04-28T07:30:14.735Z,10.30
2023-04-28T07:32:42.988Z,9.93
2023-04-28T07:35:10.074Z,9.77
2023-04-28T07:37:37.751Z,15.93
2023-04-28T07:40:05.887Z,7.03
2023-04-28T07:42:32.981Z,6.25
2023-04-28T07:44:59.745Z,5.72
2023-04-28T07:47:27.742Z,7.57
2023-04-28T07:49:54.594Z,5.72
2023-04-28T07:52:21.806Z,6.57
2023-04-28T07:54:48.856Z,6.65
2023-04-28T07:57:15.858Z,7.40
2023-04-28T07:59:42.811Z,7.57
2023-04-28T08:02:13.291Z,6.55
2023-04-28T08:04:40.514Z,7.45
2023-04-28T08:07:08.557Z,4.68
2023-04-28T08:09:35.625Z,4.82
2023-04-28T08:12:03.009Z,8.73
2023-04-28T08:14:29.898Z,5.32
2023-04-28T08:16:57.355Z,8.43
2023-04-28T08:19:24.343Z,6.35
2023-04-28T08:21:51.514Z,5.65
2023-04-28T08:24:18.516Z,8.68
2023-04-28T08:26:45.734Z,7.72
2023-04-28T08:29:12.665Z,5.70
2023-04-28T08:31:39.515Z,8.13
2023-04-28T08:34:06.368Z,3.83
2023-04-28T08:36:33.454Z,5.60
2023-04-28T08:39:03.409Z,7.00
2023-04-28T08:41:33.071Z,7.25
2023-04-28T08:44:00.069Z,13.20
2023-04-28T08:46:28.973Z,9.52
2023-04-28T08:49:03.641Z,7.55
2023-04-28T08:51:37.823Z,8.95
2023-04-28T08:56:37.650Z,6.47
2023-04-28T08:59:05.662Z,9.23
2023-04-28T09:01:32.958Z,5.20
2023-04-28T09:04:04.114Z,7.40
2023-04-28T09:06:40.669Z,7.18
2023-04-28T09:09:30.859Z,6.70
2023-04-28T09:12:01.870Z,10.00
2023-04-28T09:14:34.517Z,8.02
2023-04-28T09:17:02.482Z,7.40
2023-04-28T09:19:39.368Z,6.43
2023-04-28T09:22:24.063Z,6.00
2023-04-28T09:24:54.018Z,4.85
2023-04-28T09:27:28.601Z,8.38
2023-04-28T09:29:57.009Z,5.07
2023-04-28T09:32:25.014Z,6.25
2023-04-28T09:34:54.028Z,6.20
2023-04-28T09:37:23.248Z,7.43
2023-04-28T09:39:51.908Z,7.15
2023-04-28T09:42:51.757Z,5.93
2023-04-28T09:45:18.639Z,8.98
2023-04-28T09:47:48.147Z,13.93
2023-04-28T09:50:17.501Z,5.70
2023-04-28T09:52:56.759Z,6.50
2023-04-28T09:55:25.019Z,9.85
2023-04-28T09:57:55.037Z,9.88
2023-04-28T10:00:23.467Z,12.98
2023-04-28T10:02:51.967Z,5.53
2023-04-28T10:05:20.340Z,7.70
2023-04-28T10:07:47.422Z,7.75
2023-04-28T10:10:15.082Z,9.90
2023-04-28T10:12:42.576Z,12.00
2023-04-28T10:15:10.441Z,7.05
2023-04-28T10:17:38.757Z,10.45
2023-04-28T10:20:06.622Z,6.70
2023-04-28T10:23:01.250Z,6.85
2023-04-28T10:25:38.761Z,7.13
2023-04-28T10:28:07.870Z,13.55
2023-04-28T10:30:35.913Z,6.43
2023-04-28T10:33:12.156Z,7.70
2023-04-28T10:35:40.690Z,7.65
2023-04-28T10:38:16.627Z,11.98
2023-04-28T10:40:45.279Z,7.30
2023-04-28T10:43:14.330Z,5.63
2023-04-28T10:45:56.210Z,8.63
2023-04-28T10:48:46.463Z,6.47
2023-04-28T10:51:16.448Z,5.35
2023-04-28T10:53:46.712Z,5.28
2023-04-28T10:56:24.869Z,5.93
2023-04-28T10:58:55.861Z,12.68
2023-04-28T11:01:24.297Z,10.07
2023-04-28T11:04:08.316Z,7.95
2023-04-28T11:06:40.711Z,11.63
2023-04-28T11:09:17.554Z,4.78
2023-04-28T11:12:06.738Z,4.45
2023-04-28T11:14:35.518Z,6.97
2023-04-28T11:17:08.332Z,5.93
2023-04-28T11:19:37.771Z,4.93
2023-04-28T11:22:25.377Z,5.60
2023-04-28T11:25:02.774Z,6.20
2023-04-28T11:27:34.467Z,5.47
2023-04-28T11:30:01.844Z,4.10
2023-04-28T11:32:36.707Z,7.07
2023-04-28T11:35:04.836Z,9.18
2023-04-28T11:37:31.907Z,4.68
2023-04-28T11:39:58.862Z,4.72
2023-04-28T11:42:27.818Z,5.68
2023-04-28T11:44:55.143Z,5.85
2023-04-28T11:47:33.568Z,5.78
2023-04-28T11:50:03.792Z,10.00
2023-04-28T11:52:30.657Z,5.72
2023-04-28T11:55:00.272Z,5.93
2023-04-28T11:57:27.822Z,5.75
2023-04-28T12:00:12.154Z,4.57
2023-04-28T12:02:39.651Z,5.05
2023-04-28T12:05:07.875Z,6.95
2023-04-28T12:07:45.857Z,7.32
2023-04-28T12:10:16.154Z,6.25
2023-04-28T12:12:50.936Z,7.50
2023-04-28T12:15:20.864Z,7.72
2023-04-28T12:17:49.185Z,5.75
2023-04-28T12:20:39.452Z,9.32
2023-04-28T12:23:07.713Z,5.45
2023-04-28T12:25:44.459Z,4.95
2023-04-28T12:28:11.334Z,10.63
2023-04-28T12:30:43.398Z,5.22
2023-04-28T12:33:29.006Z,7.20
2023-04-28T12:35:59.754Z,4.82
2023-04-28T12:38:28.314Z,7.13
2023-04-28T12:40:55.821Z,7.43
2023-04-28T12:43:23.471Z,7.43
2023-04-28T12:45:53.326Z,5.68
2023-04-28T12:48:20.739Z,7.30
2023-04-28T12:50:47.620Z,10.48
2023-04-28T12:53:14.653Z,7.93
2023-04-28T12:55:41.615Z,6.57
2023-04-28T12:58:08.705Z,10.52
2023-04-28T13:00:35.503Z,6.30
2023-04-28T13:03:02.461Z,15.80
2023-04-28T13:05:29.461Z,11.10
2023-04-28T13:07:56.395Z,14.07
2023-04-28T13:10:23.674Z,10.80
2023-04-28T13:12:50.618Z,9.48
2023-04-28T13:15:17.683Z,8.45
2023-04-28T13:17:46.467Z,10.88
2023-04-28T13:20:13.440Z,8.70
2023-04-28T13:22:40.407Z,9.25
2023-04-28T13:25:07.659Z,9.73
2023-04-28T13:27:35.773Z,9.68
2023-04-28T13:30:05.529Z,9.38
2023-04-28T13:32:32.591Z,9.00
2023-04-28T13:34:59.509Z,14.95
2023-04-28T13:37:26.670Z,10.82
2023-04-28T13:39:53.663Z,13.02
2023-04-28T13:42:20.829Z,14.80
2023-04-28T13:44:49.298Z,9.98
2023-04-28T13:47:16.393Z,10.50
2023-04-28T13:49:43.580Z,12.55
2023-04-28T13:52:11.056Z,12.65
2023-04-28T13:54:37.897Z,16.27
2023-04-28T13:57:04.692Z,12.50
2023-04-28T13:59:31.865Z,11.95
2023-04-28T14:01:58.717Z,11.05
2023-04-28T14:04:26.028Z,16.55
2023-04-28T14:06:53.095Z,24.55
2023-04-28T14:09:20.293Z,13.75
2023-04-28T14:11:47.586Z,16.35
2023-04-28T14:14:14.486Z,19.17
2023-04-28T14:16:41.791Z,17.50
2023-04-28T14:19:08.812Z,17.40
2023-04-28T14:21:36.878Z,15.90
2023-04-28T14:24:04.068Z,18.20
2023-04-28T14:26:30.985Z,15.48
2023-04-28T14:28:57.913Z,18.58
2023-04-28T14:31:24.837Z,18.77
2023-04-28T14:33:51.725Z,22.40
2023-04-28T14:36:19.633Z,17.35
2023-04-28T14:38:46.543Z,16.13
2023-04-28T14:41:13.346Z,20.33
2023-04-28T14:43:40.195Z,20.05
2023-04-28T14:46:07.955Z,19.33
2023-04-28T14:48:35.038Z,17.40
2023-04-28T14:51:02.414Z,19.52
2023-04-28T14:53:30.334Z,17.35
2023-04-28T14:56:07.575Z,18.85
2023-04-28T14:58:44.858Z,21.30
2023-04-28T15:01:11.950Z,18.02
2023-04-28T15:03:39.389Z,19.55
2023-04-28T15:06:06.573Z,21.80
2023-04-28T15:08:33.511Z,17.70
2023-04-28T15:11:00.515Z,18.48
2023-04-28T15:13:28.593Z,19.67
2023-04-28T15:15:56.131Z,19.35
2023-04-28T15:18:23.234Z,19.45
2023-04-28T15:20:58.020Z,19.55
2023-04-28T15:23:24.934Z,17.52
2023-04-28T15:25:54.342Z,19.88
2023-04-28T15:28:22.108Z,17.13
2023-04-28T15:30:48.926Z,20.00
2023-04-28T15:33:18.646Z,17.13
2023-04-28T15:35:46.492Z,21.05
2023-04-28T15:38:13.796Z,20.65
2023-04-28T15:40:40.931Z,21.77
2023-04-28T15:43:08.327Z,20.50
2023-04-28T15:45:35.519Z,23.85
2023-04-28T15:48:02.525Z,24.27
2023-04-28T15:50:29.508Z,22.58
2023-04-28T15:52:56.450Z,19.00
2023-04-28T15:55:25.142Z,21.00
2023-04-28T15:57:52.872Z,25.17
2023-04-28T16:00:19.902Z,19.80
2023-04-28T16:02:46.894Z,19.55
2023-04-28T16:05:14.007Z,18.48
2023-04-28T16:07:41.092Z,18.95
2023-04-28T16:10:09.832Z,14.80
2023-04-28T16:12:37.477Z,22.27
2023-04-28T16:15:05.332Z,18.27
2023-04-28T16:17:33.973Z,20.90
2023-04-28T16:20:06.013Z,15.77
2023-04-28T16:22:33.069Z,17.45
2023-04-28T16:25:06.571Z,11.57
2023-04-28T16:27:35.092Z,9.88
2023-04-28T16:30:02.297Z,10.23
2023-04-28T16:32:29.321Z,9.73
2023-04-28T16:34:59.818Z,9.68
2023-04-28T16:37:29.172Z,8.98
2023-04-28T16:39:55.978Z,8.50
2023-04-28T16:42:25.816Z,6.93
2023-04-28T16:44:53.151Z,9.23
2023-04-28T16:47:20.981Z,8.50
2023-04-28T16:49:48.266Z,7.88
2023-04-28T16:52:15.562Z,9.38
2023-04-28T16:54:42.401Z,9.80
2023-04-28T16:57:09.318Z,9.70
2023-04-28T16:59:37.343Z,12.00
2023-04-28T17:02:04.232Z,10.63
2023-04-28T17:04:31.654Z,10.52
2023-04-28T17:06:59.335Z,15.13
2023-04-28T17:09:27.567Z,18.60
2023-04-28T17:11:55.077Z,15.02
2023-04-28T17:14:22.105Z,17.95
2023-04-28T17:16:49.109Z,19.08
2023-04-28T17:19:16.802Z,23.95
2023-04-28T17:21:43.773Z,24.80
2023-04-28T17:24:10.647Z,29.08
2023-04-28T17:26:37.706Z,26.92
2023-04-28T17:29:04.856Z,26.30
2023-04-28T17:31:31.771Z,23.83
2023-04-28T17:34:01.690Z,25.13
2023-04-28T17:36:28.876Z,33.47
2023-04-28T17:38:56.527Z,24.58
2023-04-28T17:41:23.548Z,26.08
2023-04-28T17:43:51.803Z,32.25
2023-04-28T17:46:18.989Z,28.45
2023-04-28T17:48:48.839Z,28.33
2023-04-28T17:51:15.761Z,28.95
2023-04-28T17:53:42.677Z,34.22
2023-04-28T17:56:09.570Z,30.52
2023-04-28T17:58:38.583Z,34.80
2023-04-28T18:01:07.413Z,33.63
2023-04-28T18:03:36.197Z,31.23
2023-04-28T18:06:04.832Z,31.38
2023-04-28T18:08:32.163Z,34.42
2023-04-28T18:11:00.554Z,32.35
2023-04-28T18:13:30.601Z,32.13
2023-04-28T18:15:57.676Z,31.73
2023-04-28T18:18:25.522Z,27.63
2023-04-28T18:21:03.051Z,30.52
2023-04-28T18:23:33.085Z,30.08
2023-04-28T18:25:59.913Z,30.73
2023-04-28T18:28:26.834Z,24.52
2023-04-28T18:30:53.864Z,30.60
2023-04-28T18:33:23.273Z,34.35
2023-04-28T18:35:59.825Z,33.63
2023-04-28T18:38:26.890Z,34.83
2023-04-28T18:40:53.726Z,31.67
2023-04-28T18:43:21.688Z,33.50
2023-04-28T18:45:48.594Z,26.90
2023-04-28T18:48:15.531Z,32.72
2023-04-28T18:50:42.604Z,30.42
2023-04-28T18:53:10.829Z,33.88
2023-04-28T18:55:38.843Z,35.88
2023-04-28T18:58:05.761Z,32.80
2023-04-28T19:00:39.619Z,33.15
2023-04-28T19:03:06.578Z,37.75
2023-04-28T19:05:34.557Z,35.60
2023-04-28T19:08:01.361Z,42.92
2023-04-28T19:10:28.233Z,36.55
2023-04-28T19:12:56.260Z,38.58
2023-04-28T19:15:23.762Z,41.20
2023-04-28T19:17:51.088Z,37.05
2023-04-28T19:20:18.077Z,34.10
2023-04-28T19:22:47.242Z,36.90
2023-04-28T19:25:15.334Z,31.58
2023-04-28T19:27:43.217Z,32.90
2023-04-28T19:30:12.506Z,41.58
2023-04-28T19:32:43.348Z,40.05
2023-04-28T19:35:10.587Z,36.45
2023-04-28T19:37:43.059Z,44.95
2023-04-28T19:40:13.297Z,37.17
2023-04-28T19:42:40.144Z,37.85
2023-04-28T19:45:07.985Z,34.47
2023-04-28T19:47:35.052Z,37.40
2023-04-28T19:50:05.293Z,35.10
2023-04-28T19:52:32.228Z,41.38
2023-04-28T19:55:00.696Z,32.20
2023-04-28T19:57:27.632Z,31.67
2023-04-28T19:59:55.668Z,34.72
2023-04-28T20:02:23.040Z,31.92
2023-04-28T20:04:52.352Z,32.80
2023-04-28T20:07:24.234Z,29.95
2023-04-28T20:09:52.594Z,32.30
2023-04-28T20:12:19.649Z,31.80
2023-04-28T20:14:47.191Z,24.40
2023-04-28T20:17:18.546Z,29.20
2023-04-28T20:19:45.445Z,28.08
2023-04-28T20:22:12.389Z,25.27
2023-04-28T20:24:40.658Z,35.20
2023-04-28T20:27:07.696Z,36.38
2023-04-28T20:29:35.080Z,26.95
2023-04-28T20:32:02.625Z,26.88
2023-04-28T20:34:30.702Z,28.80
2023-04-28T20:36:59.448Z,28.25
2023-04-28T20:39:29.139Z,29.10
2023-04-28T20:41:56.080Z,28.95
2023-04-28T20:44:22.913Z,28.02
2023-04-28T20:46:49.896Z,32.75
2023-04-28T20:49:16.954Z,32.50
2023-04-28T20:51:45.318Z,28.92
2023-04-28T20:54:16.032Z,29.02
2023-04-28T20:56:43.200Z,29.35
2023-04-28T20:59:12.163Z,25.83
2023-04-28T21:01:39.014Z,25.63
2023-04-28T21:04:06.191Z,27.45
2023-04-28T21:06:33.126Z,29.98
2023-04-28T21:08:59.980Z,23.70
2023-04-28T21:11:27.006Z,24.67
2023-04-28T21:13:54.172Z,28.17
2023-04-28T21:16:23.600Z,21.40
2023-04-28T21:18:50.757Z,23.98
2023-04-28T21:21:18.474Z,25.40
2023-04-28T21:23:45.874Z,27.58
2023-04-28T21:26:15.020Z,18.13
2023-04-28T21:28:41.920Z,24.98
2023-04-28T21:31:12.360Z,22.75
2023-04-28T21:33:39.512Z,22.55
2023-04-28T21:36:08.092Z,24.73
2023-04-28T21:38:38.963Z,22.60
2023-04-28T21:41:07.537Z,20.80
2023-04-28T21:43:34.887Z,22.63
2023-04-28T21:46:01.781Z,24.05
2023-04-28T21:48:28.656Z,21.95
2023-04-28T21:50:55.431Z,18.10
2023-04-28T21:53:22.684Z,20.60
2023-04-28T21:55:49.509Z,18.95
2023-04-28T21:58:16.538Z,21.05
2023-04-28T22:00:46.508Z,20.92
2023-04-28T22:03:14.605Z,23.73
2023-04-28T22:05:42.193Z,20.10
2023-04-28T22:08:09.213Z,18.55
2023-04-28T22:10:36.625Z,18.58
2023-04-28T22:13:05.002Z,18.63
2023-04-28T22:15:32.093Z,20.40
2023-04-28T22:17:59.061Z,19.13
2023-04-28T22:20:25.954Z,21.40
2023-04-28T22:22:53.927Z,19.55
2023-04-28T22:25:21.099Z,18.63
2023-04-28T22:27:48.113Z,24.25
2023-04-28T22:30:15.614Z,23.55
2023-04-28T22:32:46.937Z,23.52
2023-04-28T22:35:14.613Z,22.50
2023-04-28T22:37:41.479Z,22.58
2023-04-28T22:40:08.848Z,25.63
2023-04-28T22:42:40.439Z,29.02
2023-04-28T22:45:09.606Z,30.33
2023-04-28T22:47:37.600Z,30.13
2023-04-28T22:50:06.121Z,29.88
2023-04-28T22:52:33.866Z,33.03
2023-04-28T22:55:01.184Z,33.65
2023-04-28T22:57:28.284Z,35.47
2023-04-28T22:59:55.364Z,32.25
2023-04-28T23:02:23.094Z,34.95
2023-04-28T23:04:50.540Z,35.78
2023-04-28T23:07:17.609Z,36.72
2023-04-28T23:09:44.587Z,35.47
2023-04-28T23:12:11.541Z,38.45
2023-04-28T23:14:38.380Z,34.90
2023-04-28T23:17:05.377Z,34.67
2023-04-28T23:19:32.287Z,35.22
2023-04-28T23:21:59.700Z,34.33
2023-04-28T23:24:27.337Z,35.83
2023-04-28T23:26:54.263Z,29.80
2023-04-28T23:29:21.192Z,36.00
2023-04-28T23:31:52.480Z,37.78
2023-04-28T23:34:19.536Z,30.80
2023-04-28T23:36:46.373Z,31.27
2023-04-28T23:39:13.509Z,33.63
2023-04-28T23:41:41.062Z,29.35
2023-04-28T23:44:08.641Z,38.55
2023-04-28T23:46:35.528Z,33.22
2023-04-28T23:49:02.444Z,31.08
2023-04-28T23:51:29.742Z,29.95
2023-04-28T23:53:56.895Z,32.03
2023-04-28T23:56:23.801Z,34.90
2023-04-28T23:58:51.130Z,34.70
